»·PEaware :: N738YR KRNM-KMHV

N738YR :: KRNM-KMHV

FLIGHT INFORMATION

Flight Status: Arrived
Operator: Privately registered:
United States
More flights under this callsign
Pilot: Anonymous 26455 (26455)
Aircraft: CESSNA 172 SKYHAWK
(C172)
More flights by this aircraft type
Origin: KRNM Ramona
United States
Destination: KMHV Mojave
United States
More flights between these airports :: More routes between these airports
Route: +
File this flight plan on PilotEdge
Remarks:
Altitude:
(Current/Filed)
10,500ft
Speed:
(Current/Filed)
0kts
Departed: 01-Oct-20 04:55 PM
Arrived: 01-Oct-20 06:15 PM
Distance/Time
Traveled:
136nm/1:20
Distance/Time
To Go:
Arrived

Flight Plot

Page will automatically refresh every two minutes.

Flight plan parsing failed; only flown route is shown


Map Options




Map Legend


Flown Route
Filed Route
Departure Airport
Arrival Airport
Navaid (VOR, NDB)
Fix

Horizontal Profiles

Position Reports

Time Latitude Longitude Heading Altitude Ground
Speed
01-Oct-20 16:48 33.037117 -116.910292 96 1399ft 0kts
01-Oct-20 16:49 33.037026 -116.909614 95 1399ft 7kts
01-Oct-20 16:50 33.037246 -116.907773 94 1399ft 5kts
01-Oct-20 16:51 33.037485 -116.907434 4 1399ft 0kts
01-Oct-20 16:52 33.037485 -116.907434 4 1399ft 0kts
01-Oct-20 16:53 33.038107 -116.908107 281 1399ft 28kts
01-Oct-20 16:54 33.042097 -116.928078 284 1948ft 59kts
01-Oct-20 16:55 33.054218 -116.938369 322 2555ft 56kts
01-Oct-20 16:56 33.069283 -116.951406 319 3021ft 74kts
01-Oct-20 16:57 33.087479 -116.965982 326 3539ft 83kts
01-Oct-20 16:58 33.108664 -116.980270 328 4053ft 91kts
01-Oct-20 16:59 33.130821 -116.995316 328 4621ft 87kts
01-Oct-20 17:00 33.149819 -117.008412 328 5301ft 69kts
01-Oct-20 17:01 33.157820 -117.019435 142 5564ft 103kts
01-Oct-20 17:02 33.151891 -117.034853 311 5813ft 79kts
01-Oct-20 17:03 33.169716 -117.049118 328 6314ft 75kts
01-Oct-20 17:05 33.187005 -117.062132 328 6815ft 72kts
01-Oct-20 17:06 33.203950 -117.075154 328 7319ft 72kts
01-Oct-20 17:07 33.221622 -117.087583 333 7734ft 80kts
01-Oct-20 17:08 33.244535 -117.098278 340 8057ft 95kts
01-Oct-20 17:09 33.269979 -117.110274 339 8368ft 100kts
01-Oct-20 17:10 33.296112 -117.122776 339 8673ft 101kts
01-Oct-20 17:11 33.321797 -117.135276 339 9054ft 96kts
01-Oct-20 17:12 33.346077 -117.147447 339 9453ft 93kts
01-Oct-20 17:13 33.369380 -117.159481 339 9852ft 90kts
01-Oct-20 17:14 33.392099 -117.171564 339 10252ft 88kts
01-Oct-20 17:15 33.414800 -117.183910 340 10479ft 100kts
01-Oct-20 17:16 33.442860 -117.198519 340 10474ft 115kts
01-Oct-20 17:17 33.472792 -117.213848 340 10479ft 118kts
01-Oct-20 17:18 33.502293 -117.228952 340 10482ft 108kts
01-Oct-20 17:19 33.529193 -117.242909 340 10488ft 105kts
01-Oct-20 17:20 33.556156 -117.256831 340 10490ft 106kts
01-Oct-20 17:21 33.583378 -117.270793 341 10491ft 106kts
01-Oct-20 17:22 33.610646 -117.284686 341 10492ft 106kts
01-Oct-20 17:22 33.633225 -117.296369 340 10492ft 106kts
01-Oct-20 17:23 33.660397 -117.310706 340 10497ft 106kts
01-Oct-20 17:24 33.687480 -117.324938 340 10503ft 106kts
01-Oct-20 17:26 33.719034 -117.341459 340 10512ft 106kts
01-Oct-20 17:26 33.741595 -117.353238 340 10519ft 106kts
01-Oct-20 17:27 33.768556 -117.367280 341 10525ft 106kts
01-Oct-20 17:28 33.796653 -117.381722 341 10517ft 113kts
01-Oct-20 17:29 33.825982 -117.396536 341 10509ft 115kts
01-Oct-20 17:30 33.855673 -117.411382 341 10501ft 115kts
01-Oct-20 17:31 33.885474 -117.426158 341 10494ft 115kts
01-Oct-20 17:32 33.915372 -117.440865 341 10489ft 115kts
01-Oct-20 17:33 33.945169 -117.455406 341 10488ft 115kts
01-Oct-20 17:34 33.974831 -117.469751 341 10490ft 115kts
01-Oct-20 17:35 34.004567 -117.484147 341 10492ft 115kts
01-Oct-20 17:36 34.034076 -117.499192 340 10495ft 115kts
01-Oct-20 17:37 34.063365 -117.514516 340 10497ft 115kts
01-Oct-20 17:38 34.092836 -117.529791 340 10500ft 114kts
01-Oct-20 17:39 34.122230 -117.544924 340 10509ft 115kts
01-Oct-20 17:40 34.151926 -117.560118 340 10515ft 116kts
01-Oct-20 17:41 34.181617 -117.575231 340 10522ft 116kts
01-Oct-20 17:42 34.211383 -117.590311 341 10529ft 116kts
01-Oct-20 17:43 34.241216 -117.605359 341 10538ft 116kts
01-Oct-20 17:44 34.271092 -117.620396 341 10557ft 115kts
01-Oct-20 17:45 34.301510 -117.635606 341 10475ft 120kts
01-Oct-20 17:46 34.331653 -117.652083 339 10492ft 117kts
01-Oct-20 17:47 34.361041 -117.669181 337 10503ft 116kts
01-Oct-20 17:48 34.390130 -117.686846 337 10511ft 116kts
01-Oct-20 17:49 34.419199 -117.704422 337 10513ft 117kts
01-Oct-20 17:50 34.448509 -117.722075 337 10514ft 117kts
01-Oct-20 17:51 34.477787 -117.739666 337 10518ft 117kts
01-Oct-20 17:52 34.507190 -117.757309 337 10524ft 118kts
01-Oct-20 17:53 34.536648 -117.774972 338 10533ft 118kts
01-Oct-20 17:54 34.566222 -117.792697 338 10544ft 119kts
01-Oct-20 17:55 34.596147 -117.810478 338 10537ft 120kts
01-Oct-20 17:56 34.626123 -117.828055 338 10528ft 119kts
01-Oct-20 17:57 34.656242 -117.845471 338 10520ft 119kts
01-Oct-20 17:58 34.686346 -117.862651 338 10515ft 119kts
01-Oct-20 17:59 34.716324 -117.879562 338 10511ft 118kts
01-Oct-20 18:00 34.746308 -117.896330 339 10509ft 115kts
01-Oct-20 18:01 34.773462 -117.911703 339 10510ft 102kts
01-Oct-20 18:02 34.798383 -117.926689 331 10510ft 99kts
01-Oct-20 18:03 34.819409 -117.949551 316 10033ft 100kts
01-Oct-20 18:04 34.838128 -117.975527 316 9535ft 109kts
01-Oct-20 18:05 34.859555 -118.004052 316 9037ft 117kts
01-Oct-20 18:06 34.881893 -118.033747 313 8530ft 119kts
01-Oct-20 18:07 34.903208 -118.064932 313 8023ft 119kts
01-Oct-20 18:08 34.931411 -118.077927 13 6689ft 116kts
01-Oct-20 18:09 34.959311 -118.057700 37 5104ft 116kts
01-Oct-20 18:10 34.989766 -118.064940 329 3723ft 117kts
01-Oct-20 18:11 35.010439 -118.089538 316 3366ft 92kts
01-Oct-20 18:12 35.028648 -118.110910 316 3234ft 91kts
01-Oct-20 18:13 35.045979 -118.132322 317 2808ft 80kts
01-Oct-20 18:14 35.055158 -118.143507 317 2795ft 26kts
01-Oct-20 18:15 35.057594 -118.147530 269 2795ft 2kts
01-Oct-20 18:16 35.057592 -118.148102 270 2795ft 7kts
01-Oct-20 18:17 35.057612 -118.153646 269 2795ft 12kts
01-Oct-20 18:18 35.057446 -118.157028 231 2795ft 10kts
01-Oct-20 18:19 35.057039 -118.158067 317 2795ft 2kts

Navigation Log

Ident Type
Flight plan parsing failed, navigation log unavailable